createdAt,value
2023-03-08T00:00:24.462Z,1000.57
2023-03-08T00:01:13.403Z,1000.58
2023-03-08T00:02:13.732Z,1000.56
2023-03-08T00:03:13.702Z,1000.60
2023-03-08T00:04:13.852Z,1000.61
2023-03-08T00:05:13.042Z,1000.64
2023-03-08T00:06:13.368Z,1000.64
2023-03-08T00:07:13.333Z,1000.64
2023-03-08T00:08:13.364Z,1000.66
2023-03-08T00:09:13.358Z,1000.65
2023-03-08T00:10:13.617Z,1000.73
2023-03-08T00:11:13.653Z,1000.69
2023-03-08T00:12:13.619Z,1000.68
2023-03-08T00:13:13.633Z,1000.67
2023-03-08T00:14:13.794Z,1000.63
2023-03-08T00:15:13.810Z,1000.67
2023-03-08T00:16:58.181Z,1000.63
2023-03-08T00:17:13.216Z,1000.62
2023-03-08T00:18:29.538Z,1000.68
2023-03-08T00:19:13.717Z,1000.66
2023-03-08T00:20:13.837Z,1000.66
2023-03-08T00:21:13.790Z,1000.67
2023-03-08T00:22:13.675Z,1000.66
2023-03-08T00:23:18.792Z,1000.64
2023-03-08T00:24:13.841Z,1000.63
2023-03-08T00:25:13.820Z,1000.65
2023-03-08T00:26:14.186Z,1000.67
2023-03-08T00:27:23.109Z,1000.63
2023-03-08T00:28:13.040Z,1000.64
2023-03-08T00:29:13.117Z,1000.63
2023-03-08T00:30:13.485Z,1000.64
2023-03-08T00:31:13.744Z,1000.61
2023-03-08T00:32:14.248Z,1000.65
2023-03-08T00:33:13.388Z,1000.63
2023-03-08T00:34:18.442Z,1000.63
2023-03-08T00:36:13.077Z,1000.58
2023-03-08T00:37:13.312Z,1000.57
2023-03-08T00:38:13.587Z,1000.55
2023-03-08T00:39:13.893Z,1000.52
2023-03-08T00:40:18.079Z,1000.53
2023-03-08T00:41:13.641Z,1000.53
2023-03-08T00:42:18.700Z,1000.57
2023-03-08T00:43:14.145Z,1000.55
2023-03-08T00:44:13.079Z,1000.53
2023-03-08T00:45:18.060Z,1000.52
2023-03-08T00:46:13.403Z,1000.55
2023-03-08T00:47:13.340Z,1000.54
2023-03-08T00:48:13.617Z,1000.54
2023-03-08T00:49:13.739Z,1000.54
2023-03-08T00:50:14.046Z,1000.52
2023-03-08T00:51:20.288Z,1000.52
2023-03-08T00:52:13.320Z,1000.54
2023-03-08T00:53:13.618Z,1000.55
2023-03-08T00:54:13.550Z,1000.61
2023-03-08T00:55:18.558Z,1000.62
2023-03-08T00:56:13.593Z,1000.61
2023-03-08T00:57:13.568Z,1000.60
2023-03-08T00:58:13.702Z,1000.59
2023-03-08T00:59:22.588Z,1000.59
2023-03-08T01:00:13.561Z,1000.54
2023-03-08T01:01:18.641Z,1000.52
2023-03-08T01:02:13.593Z,1000.44
2023-03-08T01:03:13.782Z,1000.43
2023-03-08T01:04:13.810Z,1000.42
2023-03-08T01:05:14.013Z,1000.44
2023-03-08T01:06:13.026Z,1000.46
2023-03-08T01:07:13.016Z,1000.46
2023-03-08T01:08:27.928Z,1000.46
2023-03-08T01:09:12.851Z,1000.46
2023-03-08T01:10:13.887Z,1000.51
2023-03-08T01:11:14.085Z,1000.49
2023-03-08T01:12:12.935Z,1000.47
2023-03-08T01:13:13.082Z,1000.50
2023-03-08T01:14:13.254Z,1000.48
2023-03-08T01:15:13.137Z,1000.48
2023-03-08T01:16:13.407Z,1000.44
2023-03-08T01:17:13.322Z,1000.44
2023-03-08T01:18:13.370Z,1000.40
2023-03-08T01:19:13.391Z,1000.34
2023-03-08T01:20:13.385Z,1000.33
2023-03-08T01:21:13.387Z,1000.35
2023-03-08T01:22:13.703Z,1000.28
2023-03-08T01:23:13.673Z,1000.32
2023-03-08T01:24:13.714Z,1000.33
2023-03-08T01:25:18.858Z,1000.34
2023-03-08T01:26:13.792Z,1000.36
2023-03-08T01:27:14.113Z,1000.32
2023-03-08T01:28:23.316Z,1000.28
2023-03-08T01:29:13.548Z,1000.26
2023-03-08T01:30:13.616Z,1000.23
2023-03-08T01:31:13.926Z,1000.28
2023-03-08T01:32:12.893Z,1000.28
2023-03-08T01:33:12.833Z,1000.28
2023-03-08T01:34:13.826Z,1000.24
2023-03-08T01:35:18.967Z,1000.18
2023-03-08T01:36:13.095Z,1000.18
2023-03-08T01:37:23.072Z,1000.16
2023-03-08T01:38:13.466Z,1000.19
2023-03-08T01:39:13.709Z,1000.18
2023-03-08T01:41:21.025Z,1000.14
2023-03-08T01:42:13.352Z,1000.18
2023-03-08T01:43:23.657Z,1000.11
2023-03-08T01:44:13.774Z,1000.14
2023-03-08T01:45:41.566Z,1000.13
2023-03-08T01:46:20.078Z,1000.10
2023-03-08T01:47:13.088Z,1000.11
2023-03-08T01:48:13.162Z,1000.10
2023-03-08T01:49:23.131Z,1000.11
2023-03-08T01:50:13.520Z,1000.04
2023-03-08T01:51:13.474Z,1000.04
2023-03-08T01:52:13.637Z,1000.06
2023-03-08T01:53:13.775Z,1000.00
2023-03-08T01:54:13.810Z,1000.05
2023-03-08T01:55:13.010Z,1000.04
2023-03-08T01:56:26.291Z,999.99
2023-03-08T01:57:13.228Z,999.98
2023-03-08T01:58:18.219Z,999.99
2023-03-08T01:59:13.076Z,999.95
2023-03-08T02:00:13.181Z,999.92
2023-03-08T02:01:13.142Z,999.92
2023-03-08T02:02:13.093Z,999.88
2023-03-08T02:03:13.030Z,999.88
2023-03-08T02:04:13.259Z,999.89
2023-03-08T02:05:13.278Z,999.88
2023-03-08T02:06:13.460Z,999.86
2023-03-08T02:07:13.400Z,999.80
2023-03-08T02:08:13.404Z,999.78
2023-03-08T02:09:29.970Z,999.76
2023-03-08T02:10:13.052Z,999.72
2023-03-08T02:11:12.943Z,999.74
2023-03-08T02:12:12.846Z,999.68
2023-03-08T02:13:13.754Z,999.69
2023-03-08T02:14:13.614Z,999.71
2023-03-08T02:15:13.653Z,999.70
2023-03-08T02:16:13.674Z,999.72
2023-03-08T02:17:13.871Z,999.71
2023-03-08T02:18:13.841Z,999.71
2023-03-08T02:19:13.796Z,999.69
2023-03-08T02:20:13.930Z,999.63
2023-03-08T02:21:12.883Z,999.63
2023-03-08T02:22:13.237Z,999.59
2023-03-08T02:23:13.157Z,999.56
2023-03-08T02:24:13.416Z,999.57
2023-03-08T02:25:13.345Z,999.50
2023-03-08T02:26:14.814Z,999.52
2023-03-08T02:27:13.919Z,999.51
2023-03-08T02:28:12.957Z,999.50
2023-03-08T02:29:23.069Z,999.48
2023-03-08T02:30:12.955Z,999.48
2023-03-08T02:31:13.128Z,999.46
2023-03-08T02:32:13.370Z,999.42
2023-03-08T02:33:13.436Z,999.40
2023-03-08T02:34:13.504Z,999.40
2023-03-08T02:35:13.723Z,999.34
2023-03-08T02:36:13.646Z,999.33
2023-03-08T02:37:13.982Z,999.36
2023-03-08T02:38:12.993Z,999.37
2023-03-08T02:39:13.017Z,999.38
2023-03-08T02:40:12.975Z,999.36
2023-03-08T02:41:13.124Z,999.33
2023-03-08T02:42:13.206Z,999.29
2023-03-08T02:43:13.187Z,999.34
2023-03-08T02:44:13.257Z,999.40
2023-03-08T02:45:13.103Z,999.38
2023-03-08T02:46:13.213Z,999.37
2023-03-08T02:47:13.067Z,999.36
2023-03-08T02:48:13.136Z,999.34
2023-03-08T02:49:28.239Z,999.31
2023-03-08T02:50:13.573Z,999.36
2023-03-08T02:51:13.611Z,999.36
2023-03-08T02:52:13.630Z,999.38
2023-03-08T02:53:13.552Z,999.40
2023-03-08T02:54:19.530Z,999.37
2023-03-08T02:55:13.537Z,999.36
2023-03-08T02:56:13.703Z,999.35
2023-03-08T02:57:13.758Z,999.30
2023-03-08T02:58:14.232Z,999.34
2023-03-08T02:59:13.183Z,999.33
2023-03-08T03:00:13.154Z,999.28
2023-03-08T03:01:13.170Z,999.29
2023-03-08T03:02:13.098Z,999.27
2023-03-08T03:03:19.993Z,999.24
2023-03-08T03:04:13.051Z,999.22
2023-03-08T03:05:13.270Z,999.20
2023-03-08T03:06:13.386Z,999.25
2023-03-08T03:07:13.563Z,999.23
2023-03-08T03:08:13.616Z,999.24
2023-03-08T03:09:14.156Z,999.23
2023-03-08T03:10:13.081Z,999.23
2023-03-08T03:11:37.539Z,999.19
2023-03-08T03:12:13.667Z,999.24
2023-03-08T03:13:29.084Z,999.25
2023-03-08T03:14:13.083Z,999.24
2023-03-08T03:15:13.008Z,999.20
2023-03-08T03:16:13.506Z,999.22
2023-03-08T03:17:13.453Z,999.20
2023-03-08T03:18:13.685Z,999.21
2023-03-08T03:19:13.736Z,999.19
2023-03-08T03:20:29.028Z,999.17
2023-03-08T03:21:13.082Z,999.15
2023-03-08T03:22:14.255Z,999.12
2023-03-08T03:23:18.376Z,999.11
2023-03-08T03:24:35.918Z,999.11
2023-03-08T03:25:13.299Z,999.08
2023-03-08T03:26:25.140Z,999.10
2023-03-08T03:27:13.351Z,999.11
2023-03-08T03:28:13.467Z,999.13
2023-03-08T03:29:13.660Z,999.11
2023-03-08T03:30:13.726Z,999.15
2023-03-08T03:31:13.984Z,999.14
2023-03-08T03:32:13.768Z,999.16
2023-03-08T03:33:15.455Z,999.17
2023-03-08T03:34:38.154Z,999.18
2023-03-08T03:35:39.873Z,999.14
2023-03-08T03:36:12.802Z,999.13
2023-03-08T03:37:13.760Z,999.09
2023-03-08T03:38:13.809Z,999.09
2023-03-08T03:39:13.863Z,999.07
2023-03-08T03:40:24.088Z,999.08
2023-03-08T03:41:13.254Z,999.03
2023-03-08T03:42:14.614Z,999.03
2023-03-08T03:43:16.407Z,999.03
2023-03-08T03:44:13.652Z,999.01
2023-03-08T03:45:28.614Z,999.01
2023-03-08T03:46:13.704Z,999.04
2023-03-08T03:47:14.039Z,999.04
2023-03-08T03:48:13.069Z,999.02
2023-03-08T03:49:13.013Z,999.01
2023-03-08T03:50:13.002Z,998.98
2023-03-08T03:51:13.199Z,998.99
2023-03-08T03:53:31.471Z,998.96
2023-03-08T03:54:13.495Z,998.95
2023-03-08T03:55:13.884Z,998.97
2023-03-08T03:56:16.727Z,999.00
2023-03-08T03:57:14.134Z,998.99
2023-03-08T03:58:13.252Z,998.99
2023-03-08T03:59:13.379Z,999.00
2023-03-08T04:00:13.643Z,998.97
2023-03-08T04:01:13.650Z,999.01
2023-03-08T04:02:14.188Z,998.97
2023-03-08T04:03:14.422Z,998.98
2023-03-08T04:04:13.725Z,998.95
2023-03-08T04:05:13.930Z,998.88
2023-03-08T04:06:13.191Z,998.85
2023-03-08T04:07:13.365Z,998.85
2023-03-08T04:08:13.793Z,998.87
2023-03-08T04:09:13.993Z,998.84
2023-03-08T04:10:13.222Z,998.82
2023-03-08T04:11:13.204Z,998.82
2023-03-08T04:12:13.415Z,998.79
2023-03-08T04:13:13.483Z,998.81
2023-03-08T04:14:13.638Z,998.76
2023-03-08T04:15:13.657Z,998.83
2023-03-08T04:16:13.688Z,998.80
2023-03-08T04:17:23.934Z,998.73
2023-03-08T04:18:12.779Z,998.71
2023-03-08T04:19:13.867Z,998.68
2023-03-08T04:20:14.340Z,998.67
2023-03-08T04:21:16.667Z,998.63
2023-03-08T04:22:13.808Z,998.59
2023-03-08T04:23:13.709Z,998.54
2023-03-08T04:24:13.698Z,998.50
2023-03-08T04:25:13.818Z,998.47
2023-03-08T04:26:13.809Z,998.47
2023-03-08T04:27:14.145Z,998.50
2023-03-08T04:28:14.310Z,998.50
2023-03-08T04:29:13.263Z,998.51
2023-03-08T04:30:13.317Z,998.50
2023-03-08T04:31:13.476Z,998.47
2023-03-08T04:32:13.682Z,998.44
2023-03-08T04:33:13.691Z,998.46
2023-03-08T04:34:14.727Z,998.45
2023-03-08T04:35:19.275Z,998.45
2023-03-08T04:36:13.269Z,998.43
2023-03-08T04:37:13.443Z,998.44
2023-03-08T04:38:13.363Z,998.41
2023-03-08T04:39:13.816Z,998.41
2023-03-08T04:40:14.066Z,998.37
2023-03-08T04:41:21.996Z,998.36
2023-03-08T04:42:13.169Z,998.37
2023-03-08T04:43:13.246Z,998.35
2023-03-08T04:44:14.445Z,998.37
2023-03-08T04:45:13.323Z,998.36
2023-03-08T04:46:13.629Z,998.30
2023-03-08T04:47:18.831Z,998.30
2023-03-08T04:48:13.883Z,998.27
2023-03-08T04:49:14.105Z,998.23
2023-03-08T04:50:13.228Z,998.28
2023-03-08T04:51:13.246Z,998.26
2023-03-08T04:52:13.304Z,998.26
2023-03-08T04:53:13.595Z,998.29
2023-03-08T04:54:13.663Z,998.23
2023-03-08T04:55:13.872Z,998.21
2023-03-08T04:56:14.346Z,998.22
2023-03-08T04:57:20.752Z,998.23
2023-03-08T04:58:12.863Z,998.19
2023-03-08T04:59:14.108Z,998.16
2023-03-08T05:00:13.184Z,998.15
2023-03-08T05:01:27.839Z,998.12
2023-03-08T05:02:14.288Z,998.11
2023-03-08T05:05:13.980Z,998.02
2023-03-08T05:06:12.987Z,998.02
2023-03-08T05:07:13.242Z,997.99
2023-03-08T05:08:34.362Z,997.99
2023-03-08T05:09:13.413Z,997.98
2023-03-08T05:10:13.381Z,997.99
2023-03-08T05:11:18.407Z,997.94
2023-03-08T05:12:13.950Z,997.93
2023-03-08T05:13:13.275Z,997.90
2023-03-08T05:14:13.251Z,997.84
2023-03-08T05:15:13.738Z,997.86
2023-03-08T05:16:24.009Z,997.90
2023-03-08T05:17:13.439Z,997.92
2023-03-08T05:18:18.634Z,997.90
2023-03-08T05:19:13.857Z,997.91
2023-03-08T05:20:12.969Z,997.91
2023-03-08T05:21:13.025Z,997.91
2023-03-08T05:22:18.839Z,997.88
2023-03-08T05:23:13.996Z,997.86
2023-03-08T05:24:13.378Z,997.85
2023-03-08T05:25:13.690Z,997.85
2023-03-08T05:26:13.617Z,997.81
2023-03-08T05:27:13.542Z,997.81
2023-03-08T05:28:13.713Z,997.83
2023-03-08T05:29:13.994Z,997.81
2023-03-08T05:30:13.251Z,997.81
2023-03-08T05:31:13.499Z,997.81
2023-03-08T05:32:14.786Z,997.79
2023-03-08T05:33:14.141Z,997.78
2023-03-08T05:34:13.404Z,997.76
2023-03-08T05:35:13.555Z,997.75
2023-03-08T05:36:13.718Z,997.73
2023-03-08T05:37:13.756Z,997.77
2023-03-08T05:38:14.337Z,997.71
2023-03-08T05:39:13.669Z,997.76
2023-03-08T05:40:14.187Z,997.74
2023-03-08T05:41:13.471Z,997.72
2023-03-08T05:42:13.508Z,997.72
2023-03-08T05:43:13.568Z,997.67
2023-03-08T05:44:13.961Z,997.66
2023-03-08T05:45:13.180Z,997.63
2023-03-08T05:46:13.608Z,997.60
2023-03-08T05:47:13.917Z,997.57
2023-03-08T05:48:12.825Z,997.58
2023-03-08T05:49:13.910Z,997.56
2023-03-08T05:50:13.026Z,997.54
2023-03-08T05:51:13.135Z,997.54
2023-03-08T05:52:13.102Z,997.50
2023-03-08T05:53:12.993Z,997.45
2023-03-08T05:54:12.847Z,997.47
2023-03-08T05:55:13.943Z,997.47
2023-03-08T05:56:27.975Z,997.42
2023-03-08T05:57:28.360Z,997.44
2023-03-08T05:58:13.873Z,997.41
2023-03-08T05:59:14.860Z,997.36
2023-03-08T06:00:13.807Z,997.34
2023-03-08T06:01:14.273Z,997.30
2023-03-08T06:02:13.257Z,997.29
2023-03-08T06:03:13.561Z,997.31
2023-03-08T06:04:13.837Z,997.24
2023-03-08T06:05:13.844Z,997.22
2023-03-08T06:06:13.781Z,997.24
2023-03-08T06:07:14.128Z,997.21
2023-03-08T06:08:13.385Z,997.23
2023-03-08T06:09:13.405Z,997.21
2023-03-08T06:10:13.423Z,997.19
2023-03-08T06:11:13.308Z,997.18
2023-03-08T06:12:13.169Z,997.18
2023-03-08T06:13:13.172Z,997.15
2023-03-08T06:14:13.529Z,997.09
2023-03-08T06:15:13.496Z,997.12
2023-03-08T06:16:13.594Z,997.08
2023-03-08T06:17:13.748Z,997.10
2023-03-08T06:18:13.813Z,997.06
2023-03-08T06:19:14.024Z,997.05
2023-03-08T06:20:13.048Z,997.05
2023-03-08T06:21:13.054Z,997.03
2023-03-08T06:22:13.189Z,997.04
2023-03-08T06:23:13.540Z,997.03
2023-03-08T06:24:14.300Z,997.01
2023-03-08T06:25:13.429Z,997.05
2023-03-08T06:26:13.832Z,997.04
2023-03-08T06:27:13.878Z,997.06
2023-03-08T06:28:12.778Z,997.04
2023-03-08T06:29:13.772Z,996.97
2023-03-08T06:30:13.689Z,996.98
2023-03-08T06:31:13.902Z,996.97
2023-03-08T06:32:12.934Z,996.99
2023-03-08T06:33:12.849Z,996.93
2023-03-08T06:34:14.019Z,996.94
2023-03-08T06:35:13.045Z,996.92
2023-03-08T06:36:13.036Z,996.88
2023-03-08T06:37:13.248Z,996.86
2023-03-08T06:38:13.215Z,996.86
2023-03-08T06:39:13.285Z,996.86
2023-03-08T06:41:13.428Z,996.78
2023-03-08T06:42:13.769Z,996.83
2023-03-08T06:43:14.179Z,996.79
2023-03-08T06:44:23.785Z,996.77
2023-03-08T06:45:14.087Z,996.73
2023-03-08T06:46:13.202Z,996.75
2023-03-08T06:47:13.183Z,996.73
2023-03-08T06:48:13.166Z,996.67
2023-03-08T06:49:13.172Z,996.66
2023-03-08T06:50:13.712Z,996.62
2023-03-08T06:51:13.697Z,996.63
2023-03-08T06:52:13.729Z,996.61
2023-03-08T06:53:13.962Z,996.62
2023-03-08T06:54:18.098Z,996.61
2023-03-08T06:55:13.167Z,996.59
2023-03-08T06:56:13.278Z,996.57
2023-03-08T06:57:13.472Z,996.57
2023-03-08T06:58:13.361Z,996.53
2023-03-08T06:59:13.577Z,996.54
2023-03-08T07:00:13.705Z,996.51
2023-03-08T07:01:13.753Z,996.48
2023-03-08T07:02:13.757Z,996.52
2023-03-08T07:03:14.053Z,996.49
2023-03-08T07:04:13.334Z,996.49
2023-03-08T07:05:13.364Z,996.52
2023-03-08T07:06:13.332Z,996.52
2023-03-08T07:07:13.352Z,996.47
2023-03-08T07:08:13.309Z,996.46
2023-03-08T07:09:13.384Z,996.42
2023-03-08T07:10:13.598Z,996.45
2023-03-08T07:11:13.685Z,996.47
2023-03-08T07:12:13.649Z,996.48
2023-03-08T07:13:13.925Z,996.46
2023-03-08T07:14:12.875Z,996.43
2023-03-08T07:15:14.021Z,996.45
2023-03-08T07:16:13.131Z,996.41
2023-03-08T07:17:13.330Z,996.42
2023-03-08T07:18:15.898Z,996.37
2023-03-08T07:19:13.062Z,996.37
2023-03-08T07:20:33.579Z,996.38
2023-03-08T07:21:13.803Z,996.39
2023-03-08T07:22:13.995Z,996.35
2023-03-08T07:23:13.483Z,996.33
2023-03-08T07:24:13.568Z,996.36
2023-03-08T07:25:13.657Z,996.35
2023-03-08T07:26:13.596Z,996.33
2023-03-08T07:27:14.427Z,996.33
2023-03-08T07:28:13.932Z,996.31
2023-03-08T07:29:18.882Z,996.33
2023-03-08T07:30:13.155Z,996.34
2023-03-08T07:31:13.235Z,996.29
2023-03-08T07:32:13.268Z,996.26
2023-03-08T07:33:13.349Z,996.22
2023-03-08T07:34:18.366Z,996.25
2023-03-08T07:35:13.422Z,996.20
2023-03-08T07:36:13.758Z,996.20
2023-03-08T07:37:13.910Z,996.18
2023-03-08T07:38:12.798Z,996.21
2023-03-08T07:39:13.749Z,996.18
2023-03-08T07:40:13.838Z,996.19
2023-03-08T07:41:14.145Z,996.13
2023-03-08T07:42:17.981Z,996.18
2023-03-08T07:43:13.070Z,996.17
2023-03-08T07:44:13.777Z,996.15
2023-03-08T07:45:14.098Z,996.15
2023-03-08T07:46:13.321Z,996.16
2023-03-08T07:47:13.288Z,996.14
2023-03-08T07:48:13.193Z,996.12
2023-03-08T07:49:13.191Z,996.09
2023-03-08T07:50:13.164Z,996.10
2023-03-08T07:51:13.247Z,996.05
2023-03-08T07:52:37.064Z,996.10
2023-03-08T07:53:13.204Z,996.10
2023-03-08T07:54:13.165Z,996.11
2023-03-08T07:55:13.115Z,996.10
2023-03-08T07:56:13.197Z,996.06
2023-03-08T07:57:13.174Z,996.01
2023-03-08T07:58:13.097Z,996.02
2023-03-08T07:59:13.455Z,995.99
2023-03-08T08:00:13.546Z,995.99
2023-03-08T08:01:13.520Z,996.01
2023-03-08T08:02:13.622Z,996.01
2023-03-08T08:03:13.709Z,996.00
2023-03-08T08:04:13.856Z,996.01
2023-03-08T08:05:13.873Z,995.99
2023-03-08T08:06:13.147Z,995.99
2023-03-08T08:07:13.071Z,995.99
2023-03-08T08:08:13.129Z,996.02
2023-03-08T08:09:18.275Z,995.97
2023-03-08T08:10:13.164Z,995.97
2023-03-08T08:11:13.097Z,995.96
2023-03-08T08:12:13.334Z,995.91
2023-03-08T08:13:13.560Z,995.87
2023-03-08T08:14:13.601Z,995.85
2023-03-08T08:15:13.611Z,995.82
2023-03-08T08:16:15.145Z,995.74
2023-03-08T08:17:13.796Z,995.72
2023-03-08T08:18:14.115Z,995.71
2023-03-08T08:19:13.513Z,995.69
2023-03-08T08:20:13.641Z,995.66
2023-03-08T08:21:13.727Z,995.64
2023-03-08T08:22:13.788Z,995.60
2023-03-08T08:23:13.755Z,995.61
2023-03-08T08:24:13.929Z,995.60
2023-03-08T08:25:12.844Z,995.55
2023-03-08T08:26:14.304Z,995.57
2023-03-08T08:27:15.259Z,995.54
2023-03-08T08:28:13.614Z,995.55
2023-03-08T08:29:13.766Z,995.54
2023-03-08T08:30:13.879Z,995.51
2023-03-08T08:31:12.842Z,995.52
2023-03-08T08:32:14.036Z,995.49
2023-03-08T08:33:14.376Z,995.49
2023-03-08T08:34:13.293Z,995.45
2023-03-08T08:35:13.260Z,995.49
2023-03-08T08:36:13.859Z,995.48
2023-03-08T08:37:13.084Z,995.48
2023-03-08T08:38:13.148Z,995.42
2023-03-08T08:39:13.081Z,995.43
2023-03-08T08:40:13.073Z,995.43
2023-03-08T08:41:13.058Z,995.42
2023-03-08T08:42:12.972Z,995.40
2023-03-08T08:43:12.904Z,995.40
2023-03-08T08:44:13.399Z,995.35
2023-03-08T08:45:13.339Z,995.36
2023-03-08T08:46:13.285Z,995.28
2023-03-08T08:47:13.231Z,995.27
2023-03-08T08:48:13.236Z,995.25
2023-03-08T08:49:13.621Z,995.26
2023-03-08T08:50:14.214Z,995.23
2023-03-08T08:51:13.668Z,995.19
2023-03-08T08:52:13.900Z,995.14
2023-03-08T08:53:13.061Z,995.15
2023-03-08T08:54:13.218Z,995.19
2023-03-08T08:55:13.589Z,995.15
2023-03-08T08:56:27.210Z,995.13
2023-03-08T08:57:13.087Z,995.10
2023-03-08T08:58:13.214Z,995.12
2023-03-08T08:59:13.269Z,995.09
2023-03-08T09:00:13.242Z,995.04
2023-03-08T09:01:13.287Z,995.07
2023-03-08T09:02:23.526Z,995.03
2023-03-08T09:03:13.893Z,995.02
2023-03-08T09:04:13.174Z,995.00
2023-03-08T09:05:13.287Z,994.98
2023-03-08T09:06:13.407Z,994.97
2023-03-08T09:07:13.419Z,994.95
2023-03-08T09:08:13.434Z,994.97
2023-03-08T09:09:13.514Z,994.95
2023-03-08T09:10:13.873Z,994.93
2023-03-08T09:11:13.906Z,994.87
2023-03-08T09:12:12.872Z,994.89
2023-03-08T09:13:14.168Z,994.92
2023-03-08T09:14:13.304Z,994.90
2023-03-08T09:15:13.539Z,994.89
2023-03-08T09:16:29.214Z,994.91
2023-03-08T09:17:13.631Z,994.90
2023-03-08T09:18:34.117Z,994.90
2023-03-08T09:19:14.566Z,994.94
2023-03-08T09:20:13.619Z,994.93
2023-03-08T09:21:13.954Z,994.91
2023-03-08T09:22:45.886Z,994.85
2023-03-08T09:23:13.053Z,994.84
2023-03-08T09:24:28.817Z,994.80
2023-03-08T09:25:13.881Z,994.77
2023-03-08T09:26:23.952Z,994.74
2023-03-08T09:27:12.850Z,994.71
2023-03-08T09:28:25.265Z,994.71
2023-03-08T09:29:13.386Z,994.73
2023-03-08T09:30:13.429Z,994.64
2023-03-08T09:31:23.822Z,994.66
2023-03-08T09:32:12.972Z,994.62
2023-03-08T09:33:13.263Z,994.62
2023-03-08T09:35:31.744Z,994.62
2023-03-08T09:36:13.744Z,994.60
2023-03-08T09:37:24.965Z,994.65
2023-03-08T09:38:12.915Z,994.63
2023-03-08T09:39:13.016Z,994.63
2023-03-08T09:40:23.874Z,994.64
2023-03-08T09:41:13.105Z,994.61
2023-03-08T09:42:13.005Z,994.60
2023-03-08T09:43:25.877Z,994.58
2023-03-08T09:44:14.644Z,994.52
2023-03-08T09:45:13.634Z,994.48
2023-03-08T09:46:35.160Z,994.48
2023-03-08T09:47:26.568Z,994.43
2023-03-08T09:48:13.963Z,994.49
2023-03-08T09:49:13.445Z,994.50
2023-03-08T09:50:17.346Z,994.51
2023-03-08T09:51:38.616Z,994.48
2023-03-08T09:52:14.085Z,994.51
2023-03-08T09:53:13.145Z,994.47
2023-03-08T09:54:13.490Z,994.52
2023-03-08T09:55:13.729Z,994.49
2023-03-08T09:56:13.910Z,994.50
2023-03-08T09:57:29.093Z,994.45
2023-03-08T09:58:45.842Z,994.51
2023-03-08T09:59:14.082Z,994.49
2023-03-08T10:00:13.321Z,994.49
2023-03-08T10:01:18.397Z,994.42
2023-03-08T10:02:13.889Z,994.42
2023-03-08T10:05:16.373Z,994.41
2023-03-08T10:06:13.730Z,994.33
2023-03-08T10:07:14.157Z,994.29
2023-03-08T10:08:13.362Z,994.30
2023-03-08T10:09:13.551Z,994.24
2023-03-08T10:10:13.558Z,994.24
2023-03-08T10:11:13.712Z,994.25
2023-03-08T10:12:13.893Z,994.27
2023-03-08T10:13:13.107Z,994.15
2023-03-08T10:14:13.088Z,994.20
2023-03-08T10:15:52.767Z,994.22
2023-03-08T10:16:14.124Z,994.06
2023-03-08T10:17:13.505Z,994.19
2023-03-08T10:18:13.520Z,994.18
2023-03-08T10:19:13.730Z,994.18
2023-03-08T10:20:14.173Z,994.21
2023-03-08T10:21:18.953Z,994.18
2023-03-08T10:22:23.709Z,994.13
2023-03-08T10:23:13.811Z,994.18
2023-03-08T10:24:14.012Z,994.13
2023-03-08T10:26:30.727Z,994.17
2023-03-08T10:27:18.932Z,994.11
2023-03-08T10:28:13.136Z,994.12
2023-03-08T10:29:32.631Z,994.18
2023-03-08T10:30:34.147Z,994.15
2023-03-08T10:31:13.340Z,994.16
2023-03-08T10:32:13.758Z,994.15
2023-03-08T10:33:13.923Z,994.20
2023-03-08T10:34:13.046Z,994.16
2023-03-08T10:35:13.107Z,994.18
2023-03-08T10:36:13.290Z,994.15
2023-03-08T10:38:35.766Z,994.03
2023-03-08T10:39:24.539Z,994.02
2023-03-08T10:40:13.508Z,994.03
2023-03-08T10:41:21.587Z,994.02
2023-03-08T10:42:13.845Z,993.97
2023-03-08T10:43:19.376Z,993.95
2023-03-08T10:44:29.603Z,993.91
2023-03-08T10:45:14.091Z,993.91
2023-03-08T10:46:23.358Z,993.88
2023-03-08T10:47:12.934Z,993.89
2023-03-08T10:48:13.083Z,993.83
2023-03-08T10:49:13.139Z,993.91
2023-03-08T10:50:13.430Z,993.84
2023-03-08T10:51:13.564Z,993.82
2023-03-08T10:52:23.115Z,993.79
2023-03-08T10:53:13.119Z,993.78
2023-03-08T10:54:13.052Z,993.73
2023-03-08T10:55:22.966Z,993.64
2023-03-08T10:56:12.982Z,993.62
2023-03-08T10:57:13.126Z,993.56
2023-03-08T10:58:14.200Z,993.54
2023-03-08T10:59:13.192Z,993.50
2023-03-08T11:00:13.093Z,993.47
2023-03-08T11:01:13.122Z,993.51
2023-03-08T11:02:13.152Z,993.50
2023-03-08T11:03:18.580Z,993.52
2023-03-08T11:04:13.624Z,993.55
2023-03-08T11:05:23.754Z,993.50
2023-03-08T11:06:23.708Z,993.56
2023-03-08T11:07:15.432Z,993.55
2023-03-08T11:08:13.453Z,993.58
2023-03-08T11:10:13.513Z,993.62
2023-03-08T11:11:23.368Z,993.63
2023-03-08T11:12:20.653Z,993.62
2023-03-08T11:13:13.923Z,993.63
2023-03-08T11:14:17.993Z,993.65
2023-03-08T11:15:13.052Z,993.61
2023-03-08T11:16:13.354Z,993.63
2023-03-08T11:17:13.443Z,993.59
2023-03-08T11:18:13.419Z,993.61
2023-03-08T11:19:13.549Z,993.56
2023-03-08T11:20:13.944Z,993.61
2023-03-08T11:21:12.850Z,993.69
2023-03-08T11:22:14.309Z,993.74
2023-03-08T11:23:13.280Z,993.81
2023-03-08T11:24:16.423Z,993.82
2023-03-08T11:25:13.679Z,993.85
2023-03-08T11:26:13.737Z,993.82
2023-03-08T11:27:14.075Z,993.72
2023-03-08T11:28:13.410Z,993.66
2023-03-08T11:29:13.670Z,993.63
2023-03-08T11:30:13.702Z,993.61
2023-03-08T11:31:13.727Z,993.63
2023-03-08T11:32:13.823Z,993.63
2023-03-08T11:33:13.924Z,993.64
2023-03-08T11:34:13.099Z,993.57
2023-03-08T11:35:13.356Z,993.59
2023-03-08T11:36:13.641Z,993.59
2023-03-08T11:37:16.216Z,993.60
2023-03-08T11:38:15.061Z,993.61
2023-03-08T11:39:13.671Z,993.61
2023-03-08T11:40:14.247Z,993.59
2023-03-08T11:41:14.049Z,993.54
2023-03-08T11:42:13.237Z,993.47
2023-03-08T11:43:13.601Z,993.43
2023-03-08T11:44:13.834Z,993.35
2023-03-08T11:45:13.758Z,993.33
2023-03-08T11:46:14.672Z,993.38
2023-03-08T11:47:13.645Z,993.32
2023-03-08T11:48:13.568Z,993.34
2023-03-08T11:49:13.636Z,993.30
2023-03-08T11:50:14.060Z,993.32
2023-03-08T11:51:12.934Z,993.35
2023-03-08T11:52:12.817Z,993.39
2023-03-08T11:53:13.740Z,993.39
2023-03-08T11:54:13.886Z,993.43
2023-03-08T11:55:13.834Z,993.44
2023-03-08T11:56:13.930Z,993.48
2023-03-08T11:57:18.044Z,993.45
2023-03-08T11:58:13.014Z,993.41
2023-03-08T11:59:13.170Z,993.36
2023-03-08T12:00:13.179Z,993.36
2023-03-08T12:01:13.237Z,993.41
2023-03-08T12:02:13.367Z,993.39
2023-03-08T12:03:13.452Z,993.49
2023-03-08T12:04:13.766Z,993.48
2023-03-08T12:05:13.732Z,993.50
2023-03-08T12:06:26.542Z,993.51
2023-03-08T12:07:13.761Z,993.49
2023-03-08T12:08:13.995Z,993.46
2023-03-08T12:09:12.933Z,993.41
2023-03-08T12:10:13.357Z,993.38
2023-03-08T12:11:13.400Z,993.39
2023-03-08T12:12:13.374Z,993.36
2023-03-08T12:13:13.350Z,993.37
2023-03-08T12:14:13.584Z,993.33
2023-03-08T12:15:13.808Z,993.29
2023-03-08T12:16:14.017Z,993.29
2023-03-08T12:17:13.145Z,993.30
2023-03-08T12:18:13.251Z,993.32
2023-03-08T12:19:13.412Z,993.30
2023-03-08T12:20:13.412Z,993.37
2023-03-08T12:21:13.660Z,993.34
2023-03-08T12:22:13.622Z,993.36
2023-03-08T12:23:13.637Z,993.27
2023-03-08T12:24:13.643Z,993.22
2023-03-08T12:25:13.648Z,993.23
2023-03-08T12:26:13.578Z,993.24
2023-03-08T12:27:13.833Z,993.25
2023-03-08T12:28:13.879Z,993.21
2023-03-08T12:29:13.191Z,993.18
2023-03-08T12:30:13.217Z,993.16
2023-03-08T12:31:26.476Z,993.20
2023-03-08T12:32:13.808Z,993.24
2023-03-08T12:33:13.432Z,993.27
2023-03-08T12:34:13.511Z,993.24
2023-03-08T12:35:13.521Z,993.22
2023-03-08T12:36:13.852Z,993.22